Time;durP1;ratioP1;P1;durP2;ratioP2;P2;SDS_P1;SDS_P2;PMS_P1;PMS_P2;Temp;Humidity;BMP_temperature;BMP_pressure;BME280_temperature;BME280_humidity;BME280_pressure;Samples;Min_cycle;Max_cycle;Signal;HPM_P1;HPM_P2
2022/12/26 00:01:54;;;;;;;15.52;11.13;;;9.20;99.90;;;;;;4903896;29;20095;-72
2022/12/26 00:04:21;;;;;;;16.30;10.65;;;9.10;99.90;;;;;;4890585;29;20115;-72
2022/12/26 00:06:46;;;;;;;20.67;12.02;;;9.10;99.90;;;;;;4886947;29;20044;-72
2022/12/26 00:09:12;;;;;;;16.50;11.68;;;9.20;99.90;;;;;;4887756;29;20051;-73
2022/12/26 00:11:38;;;;;;;17.48;11.18;;;9.20;99.90;;;;;;4894988;29;20798;-73
2022/12/26 00:14:13;;;;;;;19.83;14.10;;;9.20;99.90;;;;;;4893890;29;20509;-73
2022/12/26 00:16:41;;;;;;;17.45;11.65;;;9.20;99.90;;;;;;4887298;29;21257;-73
2022/12/26 00:19:07;;;;;;;18.35;12.27;;;9.10;99.90;;;;;;4891515;29;20119;-72
2022/12/26 00:21:33;;;;;;;17.88;12.45;;;9.10;99.90;;;;;;4892964;29;20111;-72
2022/12/26 00:23:59;;;;;;;18.13;11.50;;;9.10;99.90;;;;;;4896082;29;20110;-74
2022/12/26 00:26:27;;;;;;;18.10;12.07;;;9.00;99.90;;;;;;4898576;29;20501;-72
2022/12/26 00:28:54;;;;;;;16.77;11.63;;;8.90;99.90;;;;;;4896054;29;20044;-72
2022/12/26 00:31:29;;;;;;;15.93;10.73;;;8.90;99.90;;;;;;4891348;29;20518;-71
2022/12/26 00:33:58;;;;;;;16.45;11.55;;;8.90;99.90;;;;;;4891402;29;20048;-71
2022/12/26 00:36:28;;;;;;;14.73;10.30;;;8.90;99.90;;;;;;4896448;29;20036;-72
2022/12/26 00:38:54;;;;;;;20.75;12.77;;;8.80;99.90;;;;;;4898066;29;20108;-72
2022/12/26 00:41:20;;;;;;;28.95;16.92;;;8.90;99.90;;;;;;4895978;29;20052;-72
2022/12/26 00:43:46;;;;;;;39.00;22.15;;;8.90;99.90;;;;;;4900279;29;20099;-72
2022/12/26 00:46:12;;;;;;;16.80;11.88;;;9.00;99.90;;;;;;4896831;29;20028;-72
2022/12/26 00:48:38;;;;;;;37.42;20.80;;;8.90;99.90;;;;;;4893862;29;21008;-71
2022/12/26 00:51:04;;;;;;;17.10;10.23;;;8.90;99.90;;;;;;4898127;29;20040;-71
2022/12/26 00:53:30;;;;;;;15.55;9.95;;;8.90;99.90;;;;;;4898372;29;20051;-71
2022/12/26 00:55:56;;;;;;;15.85;10.18;;;8.90;99.90;;;;;;4894581;29;20048;-71
2022/12/26 00:58:22;;;;;;;13.95;9.63;;;8.90;99.90;;;;;;4894540;29;20103;-71
2022/12/26 01:00:48;;;;;;;14.20;9.90;;;8.90;99.90;;;;;;4894383;29;20327;-71
2022/12/26 01:03:14;;;;;;;13.18;9.35;;;8.80;99.90;;;;;;4906304;29;20044;-71
2022/12/26 01:05:41;;;;;;;14.38;9.25;;;8.80;99.90;;;;;;4914816;29;20107;-71
2022/12/26 01:08:07;;;;;;;12.20;9.32;;;8.80;99.90;;;;;;4911016;29;20036;-71
2022/12/26 01:10:32;;;;;;;15.52;10.27;;;8.80;99.90;;;;;;4910597;29;20123;-71
2022/12/26 01:12:58;;;;;;;16.63;10.93;;;8.90;99.90;;;;;;4908403;29;20087;-71
2022/12/26 01:15:24;;;;;;;15.50;10.55;;;9.00;99.90;;;;;;4919458;29;20040;-71
2022/12/26 01:17:49;;;;;;;20.33;13.05;;;9.10;99.90;;;;;;4914545;29;20423;-71
2022/12/26 01:20:15;;;;;;;20.55;12.82;;;9.00;99.90;;;;;;4912352;29;20044;-72
2022/12/26 01:22:40;;;;;;;20.55;12.60;;;9.00;99.90;;;;;;4903382;29;20513;-72
2022/12/26 01:25:07;;;;;;;17.15;11.50;;;9.00;99.90;;;;;;4912524;29;20032;-72
2022/12/26 01:27:32;;;;;;;24.52;15.45;;;9.00;99.90;;;;;;4912632;29;20043;-72
2022/12/26 01:29:58;;;;;;;24.23;15.45;;;9.10;99.90;;;;;;4911949;29;20170;-71
2022/12/26 01:32:24;;;;;;;17.70;12.38;;;9.10;99.90;;;;;;4911887;29;20077;-71
2022/12/26 01:34:51;;;;;;;17.27;12.23;;;9.10;99.90;;;;;;4909431;29;20046;-71
2022/12/26 01:37:17;;;;;;;16.83;12.57;;;9.10;99.90;;;;;;4907184;29;20036;-71
2022/12/26 01:39:43;;;;;;;16.42;12.00;;;9.00;99.90;;;;;;4908622;29;20070;-71
2022/12/26 01:42:13;;;;;;;16.27;11.77;;;9.00;99.90;;;;;;4912450;29;20138;-71
2022/12/26 01:45:05;;;;;;;16.05;12.05;;;9.00;99.90;;;;;;4909275;29;20040;-71
2022/12/26 01:47:44;;;;;;;24.63;14.98;;;9.00;99.90;;;;;;4905893;29;20094;-71
2022/12/26 01:50:38;;;;;;;21.00;14.95;;;9.00;99.90;;;;;;4913374;29;20043;-70
2022/12/26 01:53:47;;;;;;;18.33;12.95;;;9.00;99.90;;;;;;4900999;29;20058;-71
2022/12/26 01:56:19;;;;;;;18.35;12.82;;;9.10;99.90;;;;;;4903031;29;20781;-76
2022/12/26 01:59:10;;;;;;;17.58;12.52;;;9.10;99.90;;;;;;4913661;29;20063;-75
2022/12/26 02:01:38;;;;;;;15.85;12.35;;;9.00;99.90;;;;;;4911333;29;20048;-77
2022/12/26 02:06:52;;;;;;;14.82;12.55;;;8.90;99.90;;;;;;4913511;29;20095;-77
2022/12/26 02:09:19;;;;;;;16.13;12.68;;;8.80;99.90;;;;;;4915254;29;20035;-76
2022/12/26 02:11:59;;;;;;;19.80;14.50;;;8.80;99.90;;;;;;4913486;29;20032;-77
2022/12/26 02:14:26;;;;;;;19.42;13.88;;;8.80;99.90;;;;;;4900560;29;20497;-77
2022/12/26 02:16:51;;;;;;;22.52;13.95;;;8.80;99.90;;;;;;4914625;29;20063;-77
2022/12/26 02:19:46;;;;;;;20.42;14.32;;;8.90;99.90;;;;;;4892811;29;20044;-77
2022/12/26 02:22:50;;;;;;;19.40;13.60;;;8.80;99.90;;;;;;4919500;29;20429;-74
2022/12/26 02:25:45;;;;;;;18.45;13.43;;;8.70;99.90;;;;;;4892413;29;20473;-74
2022/12/26 02:28:34;;;;;;;17.00;13.48;;;8.70;99.90;;;;;;4916487;29;21541;-73
2022/12/26 02:31:18;;;;;;;18.95;13.60;;;8.60;99.90;;;;;;4914215;29;20032;-76
2022/12/26 02:34:11;;;;;;;20.52;15.30;;;8.60;99.90;;;;;;4914500;29;20035;-76
2022/12/26 02:36:42;;;;;;;20.55;14.48;;;8.60;99.90;;;;;;4912250;29;20032;-76
2022/12/26 02:39:23;;;;;;;18.87;14.43;;;8.60;99.90;;;;;;4915286;29;20051;-76
2022/12/26 02:42:32;;;;;;;20.38;14.50;;;8.60;99.90;;;;;;4913324;29;20043;-75
2022/12/26 02:47:58;;;;;;;22.67;15.57;;;8.60;99.90;;;;;;4910269;29;20058;-74
2022/12/26 03:14:37;;;;;;;27.35;20.27;;;8.40;99.90;;;;;;4911126;29;20061;-72
2022/12/26 03:17:19;;;;;;;24.35;17.95;;;8.50;99.90;;;;;;4906649;29;20111;-72
2022/12/26 03:19:59;;;;;;;21.77;16.02;;;8.60;99.90;;;;;;4908383;29;20040;-72
2022/12/26 03:22:33;;;;;;;23.15;16.92;;;8.60;99.90;;;;;;4914352;29;20044;-72
2022/12/26 03:27:47;;;;;;;23.38;17.13;;;8.60;99.90;;;;;;4908031;29;20749;-72
2022/12/26 03:32:58;;;;;;;21.60;16.60;;;8.60;99.90;;;;;;4908269;29;20090;-72
2022/12/26 03:35:28;;;;;;;23.02;17.50;;;8.60;99.90;;;;;;4909411;29;20513;-72
2022/12/26 03:38:10;;;;;;;21.50;15.35;;;8.60;99.90;;;;;;4912099;29;20044;-72
2022/12/26 04:19:26;;;;;;;21.17;16.25;;;8.40;99.90;;;;;;4913226;29;20075;-74
2022/12/26 04:44:54;;;;;;;50.20;33.38;;;8.50;99.90;;;;;;4915406;29;20058;-75
2022/12/26 04:47:20;;;;;;;40.85;25.83;;;8.50;99.90;;;;;;4898760;29;21132;-75
2022/12/26 04:55:15;;;;;;;40.97;23.75;;;8.40;99.90;;;;;;4912122;28;20054;-74
2022/12/26 04:57:41;;;;;;;27.88;19.52;;;8.40;99.90;;;;;;4913058;29;20139;-74
2022/12/26 05:00:07;;;;;;;32.63;20.90;;;8.30;99.90;;;;;;4910852;29;20575;-74
2022/12/26 05:10:45;;;;;;;26.77;18.90;;;8.30;99.90;;;;;;4916603;29;20043;-72
2022/12/26 05:13:11;;;;;;;31.92;19.50;;;8.30;99.90;;;;;;4915933;29;20044;-72
2022/12/26 05:28:40;;;;;;;27.30;19.27;;;8.30;99.90;;;;;;4911791;29;20386;-72
2022/12/26 05:29:29;;;;;;;31.67;20.83;;;8.20;99.90;;;;;;4912400;29;20078;-72
2022/12/26 05:31:55;;;;;;;36.60;22.00;;;8.20;99.90;;;;;;4909858;29;20044;-72
2022/12/26 05:34:21;;;;;;;31.98;20.85;;;8.10;99.90;;;;;;4909082;29;20401;-72
2022/12/26 05:36:50;;;;;;;36.25;21.30;;;8.10;99.90;;;;;;4913755;29;20553;-72
2022/12/26 05:39:16;;;;;;;37.40;22.00;;;8.10;99.90;;;;;;4913486;29;20131;-72
2022/12/26 05:41:41;;;;;;;29.88;20.05;;;8.10;99.90;;;;;;4914154;29;20549;-72
2022/12/26 05:44:08;;;;;;;30.48;20.27;;;8.10;99.90;;;;;;4906295;29;20067;-72
2022/12/26 05:46:35;;;;;;;35.33;20.25;;;8.10;99.90;;;;;;4910265;29;20153;-72
2022/12/26 05:49:01;;;;;;;32.42;20.08;;;8.10;99.90;;;;;;4914285;29;20031;-72
2022/12/26 05:51:27;;;;;;;35.58;20.45;;;8.10;99.90;;;;;;4909354;29;20040;-72
2022/12/26 05:53:52;;;;;;;33.60;20.75;;;8.10;99.90;;;;;;4911100;29;20059;-72
2022/12/26 05:56:19;;;;;;;34.13;21.67;;;8.00;99.90;;;;;;4914914;29;20112;-72
2022/12/26 05:58:45;;;;;;;31.02;19.75;;;8.00;99.90;;;;;;4912106;29;20039;-72
2022/12/26 06:01:12;;;;;;;33.38;20.30;;;8.00;99.90;;;;;;4908577;29;20102;-72
2022/12/26 06:03:40;;;;;;;34.58;20.60;;;8.00;99.90;;;;;;4896678;29;20036;-72
2022/12/26 06:06:06;;;;;;;36.63;20.92;;;8.00;99.90;;;;;;4893549;29;20136;-72
2022/12/26 06:08:32;;;;;;;33.58;20.10;;;8.00;99.90;;;;;;4892385;29;20096;-72
2022/12/26 06:10:58;;;;;;;38.08;20.25;;;8.00;99.90;;;;;;4895106;29;20032;-72
2022/12/26 06:13:24;;;;;;;37.85;21.65;;;8.00;99.90;;;;;;4893190;29;20431;-71
2022/12/26 06:15:49;;;;;;;35.42;21.60;;;8.00;99.90;;;;;;4895357;29;21120;-73
2022/12/26 06:18:15;;;;;;;36.53;22.33;;;8.00;99.90;;;;;;4893039;29;20408;-72
2022/12/26 06:20:41;;;;;;;38.05;21.75;;;8.00;99.90;;;;;;4893990;29;20056;-71
2022/12/26 06:23:06;;;;;;;34.20;21.52;;;7.90;99.90;;;;;;4896344;29;20107;-71
2022/12/26 06:25:32;;;;;;;35.03;21.48;;;7.80;99.90;;;;;;4886937;29;20151;-72
2022/12/26 06:27:58;;;;;;;42.80;25.80;;;7.80;99.90;;;;;;4889575;29;20036;-71
2022/12/26 06:30:23;;;;;;;35.33;22.67;;;7.80;99.90;;;;;;4891237;29;20040;-72
2022/12/26 06:32:49;;;;;;;39.67;23.80;;;7.80;99.90;;;;;;4890285;29;20127;-72
2022/12/26 06:35:15;;;;;;;41.80;22.77;;;7.80;99.90;;;;;;4891578;29;20112;-72
2022/12/26 06:37:40;;;;;;;39.40;22.48;;;7.80;99.90;;;;;;4892147;29;20123;-71
2022/12/26 06:40:06;;;;;;;41.22;22.90;;;7.80;99.90;;;;;;4896232;29;23052;-71
2022/12/26 06:42:32;;;;;;;37.47;22.83;;;7.80;99.90;;;;;;4888243;29;20074;-71
2022/12/26 06:44:58;;;;;;;38.65;22.25;;;7.80;99.90;;;;;;4892318;29;20066;-71
2022/12/26 06:47:23;;;;;;;39.10;22.08;;;7.80;99.90;;;;;;4891359;29;20075;-71
2022/12/26 06:49:49;;;;;;;39.42;22.10;;;7.90;99.90;;;;;;4888949;29;20056;-71
2022/12/26 06:52:15;;;;;;;38.88;22.95;;;7.90;99.90;;;;;;4892518;29;20043;-71
2022/12/26 06:54:40;;;;;;;42.50;23.35;;;7.90;99.90;;;;;;4893713;29;20406;-71
2022/12/26 06:57:06;;;;;;;45.67;25.45;;;7.90;99.90;;;;;;4892228;29;20052;-71
2022/12/26 06:59:31;;;;;;;45.55;24.55;;;8.00;99.90;;;;;;4893122;29;20146;-71
2022/12/26 07:01:57;;;;;;;45.33;25.60;;;8.00;99.90;;;;;;4897069;29;20571;-71
2022/12/26 07:04:23;;;;;;;57.20;28.42;;;8.10;99.90;;;;;;4914082;29;20496;-71
2022/12/26 07:06:49;;;;;;;54.75;28.67;;;8.10;99.90;;;;;;4914449;29;20104;-70
2022/12/26 07:09:16;;;;;;;51.67;28.92;;;8.10;99.90;;;;;;4914171;29;20043;-70
2022/12/26 07:11:45;;;;;;;49.30;26.90;;;8.10;99.90;;;;;;4911205;29;20058;-70
2022/12/26 07:14:11;;;;;;;55.28;30.88;;;8.10;99.90;;;;;;4908347;29;20031;-70
2022/12/26 07:16:38;;;;;;;48.05;27.23;;;8.10;99.90;;;;;;4910456;29;20457;-71
2022/12/26 07:19:04;;;;;;;46.38;25.38;;;8.10;99.90;;;;;;4911582;29;20050;-70
2022/12/26 07:21:30;;;;;;;45.17;27.60;;;8.10;99.90;;;;;;4911170;29;20071;-73
2022/12/26 07:23:56;;;;;;;53.85;31.80;;;8.10;99.90;;;;;;4911402;29;20429;-72
2022/12/26 07:26:23;;;;;;;66.43;37.65;;;8.10;99.90;;;;;;4906561;29;20127;-73
2022/12/26 07:28:55;;;;;;;61.15;35.88;;;8.10;99.90;;;;;;4903421;29;20144;-72
2022/12/26 07:31:21;;;;;;;57.85;33.10;;;8.10;99.90;;;;;;4893539;29;20123;-72
2022/12/26 07:33:54;;;;;;;56.15;33.08;;;8.10;99.90;;;;;;4912342;29;20048;-71
2022/12/26 07:36:20;;;;;;;46.00;25.15;;;8.00;99.90;;;;;;4912252;29;20087;-71
2022/12/26 07:38:46;;;;;;;64.28;37.55;;;8.00;99.90;;;;;;4910679;29;20031;-72
2022/12/26 07:43:57;;;;;;;59.13;28.08;;;8.00;99.90;;;;;;4907196;29;20046;-71
2022/12/26 07:46:23;;;;;;;43.55;22.95;;;8.00;99.90;;;;;;4908447;29;20292;-71
2022/12/26 07:48:48;;;;;;;40.75;22.38;;;8.00;99.90;;;;;;4904789;29;20176;-70
2022/12/26 07:51:14;;;;;;;44.35;23.15;;;8.10;99.90;;;;;;4910715;29;20457;-71
2022/12/26 07:53:40;;;;;;;42.75;21.92;;;8.10;99.90;;;;;;4909667;29;20031;-71
2022/12/26 07:56:06;;;;;;;43.05;24.02;;;8.10;99.90;;;;;;4905565;29;20405;-70
2022/12/26 07:58:32;;;;;;;46.20;23.75;;;8.10;99.90;;;;;;4905433;29;20044;-71
2022/12/26 08:01:02;;;;;;;48.80;24.83;;;8.10;99.90;;;;;;4908990;29;20390;-71
2022/12/26 08:03:27;;;;;;;44.22;24.63;;;8.10;99.90;;;;;;4904006;29;20047;-71
2022/12/26 08:05:53;;;;;;;51.33;24.58;;;8.20;99.90;;;;;;4913707;29;20042;-73
2022/12/26 08:08:19;;;;;;;45.03;23.75;;;8.20;99.90;;;;;;4907297;29;20142;-71
2022/12/26 08:10:44;;;;;;;49.00;24.27;;;8.30;99.90;;;;;;4908566;29;20045;-71
2022/12/26 08:13:10;;;;;;;50.22;24.13;;;8.20;99.90;;;;;;4912425;29;21726;-72
2022/12/26 08:15:39;;;;;;;45.38;24.60;;;8.30;99.90;;;;;;4907882;29;20032;-71
2022/12/26 08:18:05;;;;;;;47.45;25.02;;;8.30;99.90;;;;;;4906830;29;20061;-73
2022/12/26 08:20:31;;;;;;;48.75;25.33;;;8.30;99.90;;;;;;4912979;29;20040;-73
2022/12/26 08:22:57;;;;;;;45.47;24.20;;;8.30;99.90;;;;;;4908934;29;20693;-73
2022/12/26 08:25:22;;;;;;;54.35;30.95;;;8.20;99.90;;;;;;4910656;29;20051;-74
2022/12/26 08:27:48;;;;;;;51.13;27.17;;;8.20;99.90;;;;;;4902257;29;20107;-74
2022/12/26 08:30:14;;;;;;;44.72;25.25;;;8.30;99.90;;;;;;4911113;28;20035;-73
2022/12/26 08:32:40;;;;;;;47.47;24.48;;;8.30;99.90;;;;;;4906242;29;20584;-72
2022/12/26 08:35:06;;;;;;;42.95;23.15;;;8.30;99.90;;;;;;4909581;29;20032;-71
2022/12/26 08:37:32;;;;;;;43.50;24.35;;;8.30;99.90;;;;;;4914938;29;20063;-70
2022/12/26 08:39:57;;;;;;;47.20;24.75;;;8.30;99.90;;;;;;4917802;29;20444;-71
2022/12/26 08:42:23;;;;;;;51.97;24.73;;;8.30;99.90;;;;;;4898797;29;20123;-70
2022/12/26 08:44:49;;;;;;;51.67;25.23;;;8.30;99.90;;;;;;4913821;29;20035;-70
2022/12/26 08:47:14;;;;;;;47.03;24.40;;;8.30;99.90;;;;;;4910022;29;20059;-70
2022/12/26 08:49:40;;;;;;;50.05;25.50;;;8.30;99.90;;;;;;4913225;29;20456;-70
2022/12/26 08:52:06;;;;;;;48.10;24.17;;;8.30;99.90;;;;;;4911869;29;20046;-70
2022/12/26 08:54:32;;;;;;;51.45;25.17;;;8.40;99.90;;;;;;4914467;29;20045;-70
2022/12/26 08:56:58;;;;;;;42.67;23.23;;;8.40;99.90;;;;;;4916038;29;20413;-71
2022/12/26 08:59:24;;;;;;;45.83;25.67;;;8.40;99.90;;;;;;4916357;29;20036;-70
2022/12/26 09:01:50;;;;;;;43.53;23.30;;;8.40;99.90;;;;;;4912221;29;20060;-69
2022/12/26 09:04:15;;;;;;;47.75;24.73;;;8.40;99.90;;;;;;4909610;29;20074;-69
2022/12/26 09:06:41;;;;;;;43.40;24.08;;;8.40;99.90;;;;;;4914118;29;20040;-69
2022/12/26 09:09:10;;;;;;;50.97;24.50;;;8.50;99.90;;;;;;4909917;29;20509;-70
2022/12/26 09:11:36;;;;;;;47.58;24.90;;;8.50;99.90;;;;;;4914993;29;20035;-72
2022/12/26 09:14:03;;;;;;;51.00;23.55;;;8.50;99.90;;;;;;4910616;29;20039;-71
2022/12/26 09:16:32;;;;;;;42.75;23.73;;;8.50;99.90;;;;;;4917360;29;20028;-71
2022/12/26 09:19:00;;;;;;;44.05;23.63;;;8.50;99.90;;;;;;4908155;29;20791;-70
2022/12/26 09:21:27;;;;;;;46.75;24.05;;;8.50;99.90;;;;;;4913201;29;20043;-73
2022/12/26 09:23:57;;;;;;;40.53;21.77;;;8.50;99.90;;;;;;4915666;29;20039;-72
2022/12/26 09:26:24;;;;;;;41.28;22.23;;;8.60;99.90;;;;;;4913283;29;20043;-73
2022/12/26 09:28:50;;;;;;;44.00;23.02;;;8.60;99.90;;;;;;4908043;29;20044;-71
2022/12/26 09:31:21;;;;;;;48.33;24.33;;;8.60;99.90;;;;;;4909841;29;20062;-74
2022/12/26 09:33:47;;;;;;;47.88;27.90;;;8.70;99.90;;;;;;4913129;29;20036;-72
2022/12/26 09:36:15;;;;;;;52.33;29.50;;;8.70;99.90;;;;;;4904715;29;20047;-71
2022/12/26 09:38:41;;;;;;;37.97;21.58;;;8.70;99.90;;;;;;4905037;29;20031;-72
2022/12/26 09:41:25;;;;;;;39.63;22.50;;;8.70;99.90;;;;;;4904796;29;20520;-70
2022/12/26 09:44:10;;;;;;;37.15;21.40;;;8.80;99.90;;;;;;4916856;29;20052;-71
2022/12/26 09:46:56;;;;;;;40.65;21.75;;;8.80;99.90;;;;;;4917111;29;20767;-71
2022/12/26 09:49:28;;;;;;;40.17;20.92;;;8.80;99.90;;;;;;4921196;29;20032;-71
2022/12/26 09:51:57;;;;;;;37.63;21.50;;;8.80;99.90;;;;;;4915872;29;20031;-71
2022/12/26 09:54:33;;;;;;;38.92;23.38;;;8.80;99.90;;;;;;4910397;29;20528;-72
2022/12/26 09:57:03;;;;;;;39.58;22.35;;;8.80;99.90;;;;;;4914438;29;20047;-71
2022/12/26 09:59:33;;;;;;;40.33;21.60;;;8.70;99.90;;;;;;4919213;29;20040;-71
2022/12/26 10:01:59;;;;;;;46.28;24.40;;;8.80;99.90;;;;;;4910315;29;20067;-72
2022/12/26 10:04:27;;;;;;;69.22;42.75;;;8.80;99.90;;;;;;4911523;29;20054;-73
2022/12/26 10:07:08;;;;;;;40.88;22.55;;;8.70;99.90;;;;;;4910095;29;20044;-72
2022/12/26 10:09:44;;;;;;;43.17;23.27;;;8.70;99.90;;;;;;4910815;29;20038;-74
2022/12/26 10:12:30;;;;;;;42.97;22.80;;;8.80;99.90;;;;;;4912345;29;20128;-74
2022/12/26 10:15:01;;;;;;;46.42;23.27;;;8.80;99.90;;;;;;4908102;29;20832;-74
2022/12/26 10:17:39;;;;;;;47.95;25.40;;;8.70;99.90;;;;;;4912366;29;20039;-76
2022/12/26 10:20:20;;;;;;;45.72;24.42;;;8.70;99.90;;;;;;4911703;29;20099;-73
2022/12/26 10:23:10;;;;;;;48.92;23.05;;;8.80;99.90;;;;;;4911591;29;20123;-74
2022/12/26 10:26:00;;;;;;;43.45;22.10;;;8.70;99.90;;;;;;4907775;29;20634;-74
2022/12/26 10:28:28;;;;;;;42.67;22.67;;;8.60;99.90;;;;;;4906186;29;20044;-73
2022/12/26 10:30:57;;;;;;;45.53;23.15;;;8.70;99.90;;;;;;4909059;29;20039;-73
2022/12/26 10:33:40;;;;;;;44.38;23.73;;;8.70;99.90;;;;;;4903989;29;20048;-73
2022/12/26 10:36:15;;;;;;;43.92;23.13;;;8.70;99.90;;;;;;4909981;29;20028;-73
2022/12/26 10:38:45;;;;;;;42.38;23.02;;;8.60;99.90;;;;;;4906081;29;20496;-73
2022/12/26 10:41:24;;;;;;;50.13;24.35;;;8.60;99.90;;;;;;4909739;29;20055;-72
2022/12/26 10:43:49;;;;;;;48.13;24.67;;;8.70;99.90;;;;;;4891803;29;20143;-72
2022/12/26 10:46:32;;;;;;;46.75;24.17;;;8.70;99.90;;;;;;4906114;29;20050;-73
2022/12/26 10:48:58;;;;;;;41.58;23.10;;;8.70;99.90;;;;;;4901619;29;20130;-72
2022/12/26 10:51:25;;;;;;;38.78;20.95;;;8.60;99.90;;;;;;4904108;29;20394;-72
2022/12/26 10:53:52;;;;;;;48.83;27.23;;;8.70;99.90;;;;;;4904407;29;20039;-72
2022/12/26 10:56:20;;;;;;;40.15;21.50;;;8.70;99.90;;;;;;4904701;29;20384;-73
2022/12/26 10:58:57;;;;;;;41.63;22.83;;;8.80;99.90;;;;;;4906181;29;20873;-71
2022/12/26 11:01:37;;;;;;;40.33;22.10;;;8.80;99.90;;;;;;4904024;29;20106;-73
2022/12/26 11:04:24;;;;;;;43.35;23.67;;;8.90;99.90;;;;;;4888991;29;20565;-72
2022/12/26 11:06:51;;;;;;;44.80;24.05;;;8.90;99.90;;;;;;4886192;29;20063;-72
2022/12/26 11:09:44;;;;;;;43.75;22.98;;;8.90;99.90;;;;;;4874128;29;20040;-74
2022/12/26 11:12:23;;;;;;;39.95;21.33;;;8.90;99.90;;;;;;4884895;29;20032;-74
2022/12/26 11:14:56;;;;;;;47.05;23.15;;;9.00;99.90;;;;;;4891335;29;20036;-75
2022/12/26 11:17:29;;;;;;;44.20;25.10;;;9.00;99.90;;;;;;4882243;29;20060;-74
2022/12/26 11:20:13;;;;;;;46.33;24.77;;;9.00;99.90;;;;;;4877198;29;20493;-74
2022/12/26 11:22:39;;;;;;;38.00;21.80;;;8.90;99.90;;;;;;4886493;29;20132;-73
2022/12/26 11:25:19;;;;;;;50.05;24.15;;;8.90;99.90;;;;;;4891879;29;20044;-76
2022/12/26 11:27:51;;;;;;;43.38;23.20;;;9.00;99.90;;;;;;4887978;29;20052;-75
2022/12/26 11:30:24;;;;;;;43.97;22.65;;;9.00;99.90;;;;;;4889822;29;20549;-76
2022/12/26 11:33:08;;;;;;;36.00;21.05;;;8.90;99.90;;;;;;4880241;29;20051;-72
2022/12/26 11:35:36;;;;;;;38.67;20.73;;;8.90;99.90;;;;;;4881077;29;20040;-76
2022/12/26 11:38:04;;;;;;;40.92;21.73;;;8.90;99.90;;;;;;4886403;29;20043;-75
2022/12/26 11:40:38;;;;;;;40.00;23.30;;;8.90;99.90;;;;;;4892680;29;20060;-74
2022/12/26 11:43:11;;;;;;;44.67;23.48;;;9.00;99.90;;;;;;4892072;29;20047;-75
2022/12/26 11:45:42;;;;;;;46.65;22.83;;;9.00;99.90;;;;;;4888401;29;20051;-75
2022/12/26 11:48:20;;;;;;;45.13;22.85;;;8.90;99.90;;;;;;4871110;29;21119;-73
2022/12/26 11:50:46;;;;;;;46.55;23.63;;;8.80;99.90;;;;;;4873861;29;20127;-74
2022/12/26 11:53:17;;;;;;;48.28;24.02;;;8.90;99.90;;;;;;4874776;29;20057;-74
2022/12/26 11:55:43;;;;;;;46.80;24.27;;;8.80;99.90;;;;;;4864728;29;20044;-73
2022/12/26 11:58:09;;;;;;;50.25;27.67;;;8.80;99.90;;;;;;4874000;29;20045;-73
2022/12/26 12:01:04;;;;;;;55.00;29.38;;;8.90;99.90;;;;;;4885661;29;20054;-75
2022/12/26 12:03:33;;;;;;;54.60;28.90;;;8.80;99.90;;;;;;4896274;28;20039;-76
2022/12/26 12:06:13;;;;;;;58.90;33.08;;;8.90;99.90;;;;;;4896751;29;20040;-73
2022/12/26 12:08:59;;;;;;;49.30;24.38;;;8.90;99.90;;;;;;4902185;29;20040;-75
2022/12/26 12:11:28;;;;;;;45.92;24.88;;;9.00;99.90;;;;;;4903410;29;20100;-74
2022/12/26 12:14:21;;;;;;;49.33;25.83;;;9.10;99.90;;;;;;4912389;29;20057;-73
2022/12/26 12:16:51;;;;;;;51.20;25.73;;;9.10;99.90;;;;;;4915153;29;20045;-73
2022/12/26 12:19:31;;;;;;;48.40;25.63;;;9.10;99.90;;;;;;4910916;29;20064;-73
2022/12/26 12:22:11;;;;;;;43.17;24.13;;;9.20;99.90;;;;;;4914501;29;20051;-73
2022/12/26 12:24:39;;;;;;;43.88;23.55;;;9.30;99.90;;;;;;4913196;29;20036;-73
2022/12/26 12:27:14;;;;;;;45.17;24.95;;;9.40;99.90;;;;;;4911134;29;20040;-74
2022/12/26 12:30:07;;;;;;;48.05;25.60;;;9.30;99.90;;;;;;4910637;29;20059;-74
2022/12/26 12:32:50;;;;;;;43.10;23.98;;;9.30;99.90;;;;;;4916292;29;20123;-75
2022/12/26 12:35:47;;;;;;;38.03;21.27;;;9.30;99.90;;;;;;4912876;29;20043;-74
2022/12/26 12:38:30;;;;;;;43.55;23.52;;;9.40;99.90;;;;;;4916127;29;21281;-74
2022/12/26 12:41:23;;;;;;;43.15;23.63;;;9.50;99.90;;;;;;4919516;29;20047;-73
2022/12/26 12:44:06;;;;;;;45.92;23.13;;;9.40;99.90;;;;;;4916679;29;20044;-74
2022/12/26 12:46:56;;;;;;;43.83;22.08;;;9.40;99.90;;;;;;4914153;29;20162;-74
2022/12/26 12:49:37;;;;;;;49.03;25.25;;;9.30;99.90;;;;;;4914445;29;20044;-73
2022/12/26 12:52:45;;;;;;;51.67;24.52;;;9.30;99.90;;;;;;4916259;29;20035;-73
2022/12/26 12:55:29;;;;;;;44.70;23.75;;;9.20;99.90;;;;;;4909530;29;20047;-74
2022/12/26 12:58:03;;;;;;;43.13;22.52;;;9.20;99.90;;;;;;4914457;29;20047;-74
2022/12/26 13:00:44;;;;;;;47.58;23.80;;;9.30;99.90;;;;;;4906207;29;20044;-75
2022/12/26 13:03:26;;;;;;;48.45;24.15;;;9.30;99.90;;;;;;4898350;29;20128;-75
2022/12/26 13:06:01;;;;;;;47.85;24.38;;;9.30;99.90;;;;;;4904808;29;20087;-73
2022/12/26 13:08:44;;;;;;;50.90;24.10;;;9.40;99.90;;;;;;4908031;29;20044;-74
2022/12/26 13:11:21;;;;;;;40.88;22.98;;;9.40;99.90;;;;;;4904415;29;20031;-74
2022/12/26 13:13:50;;;;;;;41.90;22.73;;;9.40;99.90;;;;;;4906438;29;20107;-73
2022/12/26 13:16:24;;;;;;;45.08;23.88;;;9.40;99.90;;;;;;4901784;29;20040;-73
2022/12/26 13:18:59;;;;;;;43.75;23.02;;;9.50;99.90;;;;;;4908515;29;20054;-73
2022/12/26 13:21:28;;;;;;;43.08;22.98;;;9.40;99.90;;;;;;4914091;29;20062;-73
2022/12/26 13:24:39;;;;;;;37.80;22.17;;;9.40;99.90;;;;;;4912717;29;20051;-74
2022/12/26 13:27:10;;;;;;;40.08;22.08;;;9.40;99.90;;;;;;4874249;29;20525;-76
2022/12/26 13:29:41;;;;;;;42.15;21.45;;;9.40;99.90;;;;;;4876221;29;20053;-73
2022/12/26 13:32:26;;;;;;;43.73;22.57;;;9.40;99.90;;;;;;4898993;29;20054;-73
2022/12/26 13:34:54;;;;;;;39.38;21.95;;;9.40;99.90;;;;;;4910749;29;20048;-75
2022/12/26 13:37:38;;;;;;;41.53;21.42;;;9.30;99.90;;;;;;4910926;29;20048;-75
2022/12/26 13:40:09;;;;;;;42.00;21.98;;;9.30;99.90;;;;;;4915722;29;20146;-74
2022/12/26 13:45:40;;;;;;;38.15;20.10;;;9.30;99.90;;;;;;4912987;29;20183;-77
2022/12/26 13:48:28;;;;;;;49.28;23.63;;;9.30;99.90;;;;;;4909786;29;20047;-76
2022/12/26 13:51:04;;;;;;;41.95;21.67;;;9.30;99.90;;;;;;4887062;29;20378;-77
2022/12/26 13:53:32;;;;;;;44.35;23.45;;;9.20;99.90;;;;;;4917657;29;20052;-72
2022/12/26 13:56:09;;;;;;;42.72;22.35;;;9.20;99.90;;;;;;4910561;29;20050;-73
2022/12/26 13:58:58;;;;;;;42.97;23.25;;;9.20;99.90;;;;;;4914969;29;20559;-74
2022/12/26 14:01:35;;;;;;;37.70;21.67;;;9.30;99.90;;;;;;4911430;29;20945;-72
2022/12/26 14:04:20;;;;;;;44.33;22.42;;;9.30;99.90;;;;;;4913033;29;20083;-72
2022/12/26 14:06:56;;;;;;;48.22;23.80;;;9.30;99.90;;;;;;4911123;29;20669;-71
2022/12/26 14:09:47;;;;;;;44.75;21.23;;;9.20;99.90;;;;;;4915123;29;20047;-71
2022/12/26 14:12:30;;;;;;;42.75;20.70;;;9.30;99.90;;;;;;4912013;29;20039;-72
2022/12/26 14:15:34;;;;;;;44.72;23.27;;;9.20;99.90;;;;;;4915706;29;20067;-72
2022/12/26 14:18:38;;;;;;;41.90;21.92;;;9.20;99.90;;;;;;4906906;29;20044;-72
2022/12/26 14:21:30;;;;;;;44.90;23.58;;;9.20;99.90;;;;;;4906642;29;20114;-72
2022/12/26 14:24:09;;;;;;;43.10;23.95;;;9.10;99.90;;;;;;4912392;29;20525;-72
2022/12/26 14:26:49;;;;;;;51.42;24.67;;;9.10;99.90;;;;;;4911926;29;20036;-71
2022/12/26 14:29:31;;;;;;;45.55;23.17;;;9.10;99.90;;;;;;4911893;29;20040;-71
2022/12/26 14:32:04;;;;;;;;;;;9.00;99.90;;;;;;4916279;29;20067;-73
2022/12/26 14:34:45;;;;;;;46.67;23.60;;;9.00;99.90;;;;;;4912740;29;19985;-72
2022/12/26 14:37:32;;;;;;;50.90;25.50;;;8.90;99.90;;;;;;4914784;29;20041;-73
2022/12/26 14:40:22;;;;;;;53.65;24.67;;;9.00;99.90;;;;;;4910787;29;20039;-72
2022/12/26 14:43:12;;;;;;;45.30;22.92;;;8.90;99.90;;;;;;4907672;29;20035;-72
2022/12/26 14:45:41;;;;;;;50.70;23.08;;;8.90;99.90;;;;;;4915300;29;20044;-72
2022/12/26 14:48:15;;;;;;;47.90;24.27;;;8.90;99.90;;;;;;4910262;29;20556;-72
2022/12/26 14:50:51;;;;;;;49.15;25.58;;;8.80;99.90;;;;;;4912733;29;20058;-72
2022/12/26 14:53:28;;;;;;;47.78;23.77;;;8.80;99.90;;;;;;4914808;29;20040;-72
2022/12/26 14:56:09;;;;;;;49.70;23.50;;;8.70;99.90;;;;;;4913635;29;20048;-72
2022/12/26 14:58:40;;;;;;;52.60;24.08;;;8.60;99.90;;;;;;4912311;29;20043;-74
2022/12/26 15:01:11;;;;;;;48.80;24.55;;;8.60;99.90;;;;;;4916726;29;20047;-74
2022/12/26 15:03:52;;;;;;;50.20;25.37;;;8.60;99.90;;;;;;4914267;29;20043;-74
2022/12/26 15:06:18;;;;;;;52.85;24.98;;;8.60;99.90;;;;;;4916460;29;20048;-72
2022/12/26 15:08:52;;;;;;;50.75;22.25;;;8.70;99.90;;;;;;4913356;29;20063;-74
2022/12/26 15:11:53;;;;;;;48.65;24.45;;;8.70;99.90;;;;;;4916234;29;20049;-73
2022/12/26 15:14:33;;;;;;;47.97;23.50;;;8.60;99.90;;;;;;4916645;29;20035;-73